createdAt,value
2023-03-27T00:00:19.657Z,70.9
2023-03-27T00:01:19.645Z,71.0
2023-03-27T00:02:19.714Z,71.0
2023-03-27T00:03:19.817Z,71.0
2023-03-27T00:04:19.689Z,71.0
2023-03-27T00:05:19.557Z,71.0
2023-03-27T00:06:19.608Z,71.1
2023-03-27T00:07:19.599Z,71.1
2023-03-27T00:08:19.654Z,71.2
2023-03-27T00:09:19.794Z,71.2
2023-03-27T00:10:19.661Z,71.2
2023-03-27T00:11:19.593Z,71.2
2023-03-27T00:12:19.565Z,71.3
2023-03-27T00:13:19.604Z,71.3
2023-03-27T00:14:19.650Z,71.3
2023-03-27T00:15:19.665Z,71.3
2023-03-27T00:16:19.649Z,71.3
2023-03-27T00:17:19.589Z,71.3
2023-03-27T00:18:19.600Z,71.3
2023-03-27T00:19:19.637Z,71.4
2023-03-27T00:20:19.901Z,71.4
2023-03-27T00:21:19.653Z,71.4
2023-03-27T00:22:19.558Z,71.4
2023-03-27T00:23:19.577Z,71.4
2023-03-27T00:24:19.592Z,71.4
2023-03-27T00:25:19.696Z,71.4
2023-03-27T00:26:19.590Z,71.4
2023-03-27T00:27:19.554Z,71.4
2023-03-27T00:28:19.587Z,71.4
2023-03-27T00:29:19.636Z,71.4
2023-03-27T00:30:19.543Z,71.4
2023-03-27T00:31:19.892Z,71.4
2023-03-27T00:32:19.622Z,71.5
2023-03-27T00:33:19.569Z,71.5
2023-03-27T00:34:19.595Z,71.5
2023-03-27T00:35:19.583Z,71.5
2023-03-27T00:36:19.670Z,71.5
2023-03-27T00:37:19.529Z,71.6
2023-03-27T00:38:19.525Z,71.5
2023-03-27T00:39:19.568Z,71.5
2023-03-27T00:40:19.605Z,71.5
2023-03-27T00:41:19.644Z,71.5
2023-03-27T00:42:19.527Z,71.6
2023-03-27T00:43:19.590Z,71.6
2023-03-27T00:44:19.603Z,71.6
2023-03-27T00:45:19.550Z,71.6
2023-03-27T00:46:19.539Z,71.6
2023-03-27T00:47:19.518Z,71.6
2023-03-27T00:48:19.518Z,71.6
2023-03-27T00:49:19.667Z,71.6
2023-03-27T00:50:19.704Z,71.6
2023-03-27T00:51:19.593Z,71.7
2023-03-27T00:52:19.496Z,71.7
2023-03-27T00:53:19.521Z,71.7
2023-03-27T00:54:19.636Z,71.7
2023-03-27T00:55:19.595Z,71.7
2023-03-27T00:56:19.557Z,71.7
2023-03-27T00:57:19.931Z,71.7
2023-03-27T00:58:19.540Z,71.8
2023-03-27T00:59:19.695Z,71.8
2023-03-27T01:00:19.788Z,71.8
2023-03-27T01:01:19.823Z,71.8
2023-03-27T01:02:19.749Z,71.8
2023-03-27T01:03:19.734Z,71.8
2023-03-27T01:04:19.790Z,71.8
2023-03-27T01:05:19.735Z,71.8
2023-03-27T01:06:19.793Z,71.8
2023-03-27T01:07:19.618Z,71.8
2023-03-27T01:08:19.733Z,71.8
2023-03-27T01:09:20.553Z,71.8
2023-03-27T01:10:19.779Z,71.8
2023-03-27T01:11:19.675Z,71.8
2023-03-27T01:12:20.864Z,71.8
2023-03-27T01:13:19.601Z,71.8
2023-03-27T01:14:19.648Z,71.8
2023-03-27T01:15:19.618Z,71.8
2023-03-27T01:16:19.621Z,71.8
2023-03-27T01:17:19.484Z,71.8
2023-03-27T01:18:19.494Z,71.8
2023-03-27T01:19:19.758Z,71.8
2023-03-27T01:20:19.487Z,71.8
2023-03-27T01:21:19.734Z,71.8
2023-03-27T01:22:19.481Z,71.9
2023-03-27T01:23:35.327Z,71.9
2023-03-27T01:24:19.487Z,71.9
2023-03-27T01:25:19.443Z,71.9
2023-03-27T01:26:35.304Z,72.0
2023-03-27T01:27:19.463Z,72.0
2023-03-27T01:28:19.479Z,72.0
2023-03-27T01:29:19.439Z,72.0
2023-03-27T01:30:19.447Z,72.0
2023-03-27T01:31:19.440Z,72.0
2023-03-27T01:32:19.454Z,72.0
2023-03-27T01:33:19.463Z,72.0
2023-03-27T01:34:19.421Z,72.0
2023-03-27T01:35:19.459Z,72.0
2023-03-27T01:36:19.440Z,72.0
2023-03-27T01:37:20.217Z,72.0
2023-03-27T01:38:19.657Z,72.1
2023-03-27T01:39:19.520Z,72.1
2023-03-27T01:40:19.501Z,72.1
2023-03-27T01:41:19.426Z,72.1
2023-03-27T01:42:19.404Z,72.2
2023-03-27T01:43:19.517Z,72.2
2023-03-27T01:44:19.574Z,72.2
2023-03-27T01:45:19.438Z,72.2
2023-03-27T01:46:19.490Z,72.2
2023-03-27T01:47:19.449Z,72.2
2023-03-27T01:48:19.404Z,72.2
2023-03-27T01:49:19.497Z,72.2
2023-03-27T01:50:19.450Z,72.2
2023-03-27T01:51:19.475Z,72.2
2023-03-27T01:52:19.435Z,72.3
2023-03-27T01:53:19.384Z,72.3
2023-03-27T01:54:19.440Z,72.3
2023-03-27T01:55:19.551Z,72.3
2023-03-27T01:56:19.441Z,72.3
2023-03-27T01:57:19.705Z,72.3
2023-03-27T01:58:19.549Z,72.3
2023-03-27T01:59:19.419Z,72.4
2023-03-27T02:00:19.779Z,72.4
2023-03-27T02:01:19.457Z,72.4
2023-03-27T02:02:19.434Z,72.4
2023-03-27T02:04:19.560Z,72.4
2023-03-27T02:05:19.509Z,72.4
2023-03-27T02:06:19.406Z,72.4
2023-03-27T02:07:19.560Z,72.4
2023-03-27T02:08:19.500Z,72.4
2023-03-27T02:09:21.353Z,72.4
2023-03-27T02:10:19.405Z,72.4
2023-03-27T02:11:19.406Z,72.4
2023-03-27T02:12:19.372Z,72.4
2023-03-27T02:13:19.454Z,72.3
2023-03-27T02:14:19.368Z,72.4
2023-03-27T02:15:24.586Z,72.4
2023-03-27T02:16:19.446Z,72.5
2023-03-27T02:17:19.338Z,72.5
2023-03-27T02:18:19.354Z,72.6
2023-03-27T02:19:19.381Z,72.6
2023-03-27T02:20:19.405Z,72.6
2023-03-27T02:21:20.338Z,72.7
2023-03-27T02:22:19.365Z,72.7
2023-03-27T02:23:19.369Z,72.7
2023-03-27T02:24:19.435Z,72.7
2023-03-27T02:25:19.410Z,72.8
2023-03-27T02:26:19.403Z,72.8
2023-03-27T02:27:19.363Z,72.8
2023-03-27T02:28:19.363Z,72.8
2023-03-27T02:29:19.383Z,72.9
2023-03-27T02:30:19.583Z,72.8
2023-03-27T02:31:33.276Z,72.9
2023-03-27T02:32:19.520Z,72.9
2023-03-27T02:33:19.397Z,72.9
2023-03-27T02:34:19.327Z,73.0
2023-03-27T02:35:19.340Z,72.9
2023-03-27T02:36:19.369Z,72.9
2023-03-27T02:37:19.368Z,72.9
2023-03-27T02:38:19.341Z,72.9
2023-03-27T02:39:19.361Z,73.0
2023-03-27T02:40:19.298Z,73.1
2023-03-27T02:41:19.486Z,72.9
2023-03-27T02:42:19.413Z,73.0
2023-03-27T02:43:19.309Z,73.0
2023-03-27T02:44:20.274Z,73.0
2023-03-27T02:45:19.305Z,73.0
2023-03-27T02:46:19.431Z,73.0
2023-03-27T02:47:19.375Z,73.0
2023-03-27T02:48:19.405Z,73.0
2023-03-27T02:49:19.309Z,73.0
2023-03-27T02:50:19.308Z,73.0
2023-03-27T02:51:19.373Z,73.1
2023-03-27T02:52:19.349Z,73.1
2023-03-27T02:53:19.339Z,73.2
2023-03-27T02:54:19.391Z,73.0
2023-03-27T02:55:19.309Z,73.1
2023-03-27T02:56:19.323Z,73.1
2023-03-27T02:57:20.056Z,73.1
2023-03-27T02:58:19.327Z,73.1
2023-03-27T02:59:19.321Z,73.1
2023-03-27T03:00:19.447Z,73.1
2023-03-27T03:01:19.396Z,73.1
2023-03-27T03:02:19.527Z,73.1
2023-03-27T03:03:19.496Z,73.1
2023-03-27T03:04:19.319Z,73.1
2023-03-27T03:05:20.343Z,73.1
2023-03-27T03:06:19.310Z,73.1
2023-03-27T03:07:20.353Z,73.1
2023-03-27T03:08:19.298Z,73.1
2023-03-27T03:09:19.313Z,73.1
2023-03-27T03:10:19.308Z,73.2
2023-03-27T03:11:19.299Z,73.1
2023-03-27T03:12:19.290Z,73.2
2023-03-27T03:13:19.309Z,73.2
2023-03-27T03:14:19.445Z,73.2
2023-03-27T03:15:19.293Z,73.2
2023-03-27T03:16:19.322Z,73.2
2023-03-27T03:17:19.261Z,73.2
2023-03-27T03:18:19.330Z,73.2
2023-03-27T03:19:19.255Z,73.2
2023-03-27T03:20:19.451Z,73.2
2023-03-27T03:21:19.277Z,73.3
2023-03-27T03:22:19.235Z,73.3
2023-03-27T03:23:19.303Z,73.3
2023-03-27T03:24:19.253Z,73.3
2023-03-27T03:25:19.421Z,73.3
2023-03-27T03:26:19.268Z,73.4
2023-03-27T03:27:19.256Z,73.3
2023-03-27T03:28:19.310Z,73.3
2023-03-27T03:29:19.335Z,73.5
2023-03-27T03:30:19.297Z,73.4
2023-03-27T03:31:19.273Z,73.4
2023-03-27T03:32:19.277Z,73.4
2023-03-27T03:33:19.285Z,73.5
2023-03-27T03:34:19.706Z,73.5
2023-03-27T03:35:19.286Z,73.5
2023-03-27T03:36:19.435Z,73.6
2023-03-27T03:37:19.245Z,73.5
2023-03-27T03:38:19.266Z,73.5
2023-03-27T03:39:19.213Z,73.6
2023-03-27T03:40:19.238Z,73.5
2023-03-27T03:41:20.841Z,73.6
2023-03-27T03:42:22.831Z,73.6
2023-03-27T03:43:19.256Z,73.7
2023-03-27T03:44:19.286Z,73.6
2023-03-27T03:45:20.364Z,73.6
2023-03-27T03:46:19.319Z,73.7
2023-03-27T03:47:19.336Z,73.7
2023-03-27T03:48:19.241Z,73.7
2023-03-27T03:49:19.342Z,73.7
2023-03-27T03:50:19.282Z,73.7
2023-03-27T03:51:19.255Z,73.7
2023-03-27T03:52:19.274Z,73.7
2023-03-27T03:53:19.260Z,73.7
2023-03-27T03:54:19.200Z,73.7
2023-03-27T03:55:19.201Z,73.7
2023-03-27T03:56:19.242Z,73.7
2023-03-27T03:57:19.315Z,73.7
2023-03-27T03:58:19.643Z,73.7
2023-03-27T03:59:19.317Z,73.9
2023-03-27T04:00:19.258Z,73.8
2023-03-27T04:01:19.355Z,73.8
2023-03-27T04:02:19.533Z,73.8
2023-03-27T04:03:19.288Z,73.8
2023-03-27T04:04:19.209Z,73.8
2023-03-27T04:05:19.202Z,73.8
2023-03-27T04:06:20.555Z,73.8
2023-03-27T04:07:19.270Z,73.8
2023-03-27T04:08:19.199Z,73.8
2023-03-27T04:09:19.180Z,73.8
2023-03-27T04:10:19.187Z,73.8
2023-03-27T04:11:19.206Z,73.8
2023-03-27T04:12:19.210Z,73.8
2023-03-27T04:13:19.280Z,73.9
2023-03-27T04:14:19.214Z,73.9
2023-03-27T04:15:19.224Z,73.9
2023-03-27T04:16:19.286Z,73.9
2023-03-27T04:17:19.222Z,73.9
2023-03-27T04:18:19.394Z,73.9
2023-03-27T04:19:19.138Z,73.9
2023-03-27T04:20:19.350Z,73.9
2023-03-27T04:21:19.220Z,73.9
2023-03-27T04:22:19.216Z,73.9
2023-03-27T04:23:19.168Z,73.9
2023-03-27T04:24:19.194Z,73.9
2023-03-27T04:25:19.224Z,73.9
2023-03-27T04:26:19.356Z,73.9
2023-03-27T04:27:19.216Z,73.9
2023-03-27T04:28:19.170Z,74.0
2023-03-27T04:29:19.166Z,74.0
2023-03-27T04:30:19.260Z,74.0
2023-03-27T04:31:19.157Z,74.0
2023-03-27T04:32:19.511Z,74.0
2023-03-27T04:33:19.131Z,74.0
2023-03-27T04:34:19.163Z,74.0
2023-03-27T04:35:19.173Z,74.0
2023-03-27T04:36:19.185Z,74.1
2023-03-27T04:37:23.133Z,74.0
2023-03-27T04:38:19.128Z,74.1
2023-03-27T04:39:19.185Z,74.1
2023-03-27T04:40:19.175Z,74.1
2023-03-27T04:41:19.310Z,74.1
2023-03-27T04:42:19.500Z,74.1
2023-03-27T04:43:19.227Z,74.1
2023-03-27T04:44:19.141Z,74.1
2023-03-27T04:45:20.156Z,74.1
2023-03-27T04:46:19.172Z,74.1
2023-03-27T04:47:20.160Z,74.1
2023-03-27T04:48:19.106Z,74.1
2023-03-27T04:49:19.236Z,74.1
2023-03-27T04:50:19.187Z,74.1
2023-03-27T04:51:19.107Z,74.1
2023-03-27T04:52:19.110Z,74.1
2023-03-27T04:53:19.509Z,74.2
2023-03-27T04:54:19.222Z,74.1
2023-03-27T04:55:29.256Z,74.1
2023-03-27T04:56:19.132Z,74.2
2023-03-27T04:57:19.288Z,74.2
2023-03-27T04:58:19.124Z,74.2
2023-03-27T04:59:19.119Z,74.2
2023-03-27T05:00:19.251Z,74.2
2023-03-27T05:01:19.221Z,74.1
2023-03-27T05:02:19.122Z,74.2
2023-03-27T05:03:19.178Z,74.2
2023-03-27T05:04:19.064Z,74.2
2023-03-27T05:05:19.168Z,74.2
2023-03-27T05:06:19.084Z,74.2
2023-03-27T05:07:19.164Z,74.2
2023-03-27T05:08:19.183Z,74.2
2023-03-27T05:09:19.137Z,74.2
2023-03-27T05:10:21.856Z,74.2
2023-03-27T05:11:19.074Z,74.3
2023-03-27T05:12:19.205Z,74.2
2023-03-27T05:13:19.060Z,74.2
2023-03-27T05:14:19.162Z,74.2
2023-03-27T05:15:19.266Z,74.3
2023-03-27T05:16:19.169Z,74.3
2023-03-27T05:17:19.069Z,74.3
2023-03-27T05:18:19.090Z,74.3
2023-03-27T05:19:19.067Z,74.3
2023-03-27T05:20:19.076Z,74.3
2023-03-27T05:21:19.051Z,74.3
2023-03-27T05:22:19.065Z,74.4
2023-03-27T05:23:19.061Z,74.4
2023-03-27T05:24:19.102Z,74.4
2023-03-27T05:25:19.080Z,74.4
2023-03-27T05:26:19.156Z,74.4
2023-03-27T05:27:19.057Z,74.5
2023-03-27T05:28:19.050Z,74.4
2023-03-27T05:29:19.056Z,74.4
2023-03-27T05:30:19.037Z,74.4
2023-03-27T05:31:19.140Z,74.4
2023-03-27T05:32:19.042Z,74.4
2023-03-27T05:33:19.035Z,74.4
2023-03-27T05:34:19.017Z,74.5
2023-03-27T05:35:19.182Z,74.4
2023-03-27T05:36:19.023Z,74.5
2023-03-27T05:37:19.173Z,74.5
2023-03-27T05:38:19.039Z,74.4
2023-03-27T05:39:19.180Z,74.4
2023-03-27T05:40:19.202Z,74.5
2023-03-27T05:41:19.091Z,74.4
2023-03-27T05:42:19.100Z,74.5
2023-03-27T05:43:20.087Z,74.5
2023-03-27T05:44:19.096Z,74.5
2023-03-27T05:45:19.033Z,74.5
2023-03-27T05:46:21.000Z,74.5
2023-03-27T05:47:19.053Z,74.5
2023-03-27T05:48:19.219Z,74.5
2023-03-27T05:49:19.003Z,74.5
2023-03-27T05:50:19.029Z,74.6
2023-03-27T05:51:19.069Z,74.5
2023-03-27T05:52:19.075Z,74.5
2023-03-27T05:53:18.980Z,74.6
2023-03-27T05:54:19.046Z,74.6
2023-03-27T05:55:19.061Z,74.6
2023-03-27T05:56:19.088Z,74.6
2023-03-27T05:57:19.167Z,74.6
2023-03-27T05:58:18.990Z,74.6
2023-03-27T05:59:19.246Z,74.6
2023-03-27T06:00:19.228Z,74.6
2023-03-27T06:01:19.013Z,74.6
2023-03-27T06:02:21.117Z,74.6
2023-03-27T06:03:19.118Z,74.7
2023-03-27T06:04:19.188Z,74.9
2023-03-27T06:05:18.992Z,74.8
2023-03-27T06:06:18.987Z,74.7
2023-03-27T06:07:19.018Z,74.7
2023-03-27T06:08:19.047Z,74.8
2023-03-27T06:09:18.956Z,74.7
2023-03-27T06:10:19.507Z,74.8
2023-03-27T06:11:19.058Z,74.8
2023-03-27T06:12:19.074Z,74.8
2023-03-27T06:13:19.174Z,74.8
2023-03-27T06:14:19.081Z,74.8
2023-03-27T06:15:19.045Z,74.9
2023-03-27T06:16:18.975Z,74.9
2023-03-27T06:17:18.986Z,75.0
2023-03-27T06:18:19.064Z,74.9
2023-03-27T06:19:18.971Z,75.0
2023-03-27T06:20:18.977Z,75.1
2023-03-27T06:21:18.941Z,75.0
2023-03-27T06:22:18.946Z,75.0
2023-03-27T06:23:18.991Z,75.0
2023-03-27T06:24:18.974Z,75.1
2023-03-27T06:25:18.935Z,75.1
2023-03-27T06:26:18.951Z,75.1
2023-03-27T06:27:18.988Z,75.1
2023-03-27T06:28:18.950Z,75.2
2023-03-27T06:29:18.951Z,75.1
2023-03-27T06:30:18.975Z,75.1
2023-03-27T06:31:19.230Z,75.2
2023-03-27T06:32:18.940Z,75.2
2023-03-27T06:33:18.936Z,75.4
2023-03-27T06:34:18.878Z,75.2
2023-03-27T06:35:18.918Z,75.2
2023-03-27T06:36:18.960Z,75.2
2023-03-27T06:37:18.941Z,75.2
2023-03-27T06:38:19.111Z,75.3
2023-03-27T06:39:19.187Z,75.2
2023-03-27T06:40:18.935Z,75.3
2023-03-27T06:41:18.962Z,75.2
2023-03-27T06:42:19.056Z,75.3
2023-03-27T06:43:18.932Z,75.3
2023-03-27T06:44:18.966Z,75.3
2023-03-27T06:45:18.904Z,75.3
2023-03-27T06:46:18.957Z,75.3
2023-03-27T06:47:18.988Z,75.4
2023-03-27T06:48:21.599Z,75.4
2023-03-27T06:49:18.969Z,75.3
2023-03-27T06:50:19.069Z,75.3
2023-03-27T06:51:18.957Z,75.3
2023-03-27T06:52:18.887Z,75.5
2023-03-27T06:53:26.552Z,75.4
2023-03-27T06:54:18.902Z,75.4
2023-03-27T06:55:18.992Z,75.4
2023-03-27T06:56:18.945Z,75.3
2023-03-27T06:57:18.975Z,75.3
2023-03-27T06:58:19.555Z,75.4
2023-03-27T06:59:19.087Z,75.3
2023-03-27T07:00:19.026Z,75.5
2023-03-27T07:01:19.048Z,75.3
2023-03-27T07:02:18.930Z,75.3
2023-03-27T07:03:18.910Z,75.3
2023-03-27T07:04:19.159Z,75.4
2023-03-27T07:05:18.926Z,75.4
2023-03-27T07:06:18.873Z,75.6
2023-03-27T07:07:18.896Z,75.6
2023-03-27T07:08:23.433Z,75.5
2023-03-27T07:09:20.263Z,75.5
2023-03-27T07:10:18.937Z,75.5
2023-03-27T07:11:19.194Z,75.5
2023-03-27T07:12:18.918Z,75.5
2023-03-27T07:13:18.889Z,75.5
2023-03-27T07:14:18.891Z,75.5
2023-03-27T07:15:19.012Z,75.5
2023-03-27T07:16:18.958Z,75.5
2023-03-27T07:17:19.265Z,75.5
2023-03-27T07:18:18.937Z,75.7
2023-03-27T07:19:19.321Z,75.7
2023-03-27T07:20:19.062Z,75.6
2023-03-27T07:21:18.881Z,75.5
2023-03-27T07:22:18.810Z,75.6
2023-03-27T07:23:18.913Z,75.6
2023-03-27T07:24:18.856Z,75.5
2023-03-27T07:25:18.818Z,75.8
2023-03-27T07:26:41.528Z,75.6
2023-03-27T07:27:18.836Z,75.8
2023-03-27T07:28:18.859Z,75.7
2023-03-27T07:29:18.939Z,75.8
2023-03-27T07:30:18.844Z,75.7
2023-03-27T07:32:29.755Z,75.9
2023-03-27T07:33:18.982Z,75.8
2023-03-27T07:34:19.134Z,76.1
2023-03-27T07:35:18.876Z,75.8
2023-03-27T07:36:18.808Z,75.7
2023-03-27T07:37:18.850Z,75.8
2023-03-27T07:38:18.901Z,75.9
2023-03-27T07:39:18.957Z,75.8
2023-03-27T07:40:23.838Z,75.8
2023-03-27T07:41:18.827Z,75.9
2023-03-27T07:42:18.843Z,75.9
2023-03-27T07:43:18.813Z,75.9
2023-03-27T07:44:18.850Z,75.9
2023-03-27T07:45:18.926Z,76.0
2023-03-27T07:46:18.904Z,76.4
2023-03-27T07:47:19.003Z,76.4
2023-03-27T07:48:18.846Z,76.2
2023-03-27T07:49:18.780Z,76.1
2023-03-27T07:50:18.806Z,76.1
2023-03-27T07:51:18.898Z,76.0
2023-03-27T07:52:18.821Z,76.0
2023-03-27T07:53:34.847Z,76.1
2023-03-27T07:54:18.776Z,76.0
2023-03-27T07:55:18.806Z,76.2
2023-03-27T07:56:18.951Z,76.1
2023-03-27T07:57:18.916Z,76.0
2023-03-27T07:58:19.036Z,76.0
2023-03-27T07:59:18.771Z,75.9
2023-03-27T08:00:18.906Z,75.9
2023-03-27T08:01:18.834Z,76.1
2023-03-27T08:02:18.811Z,75.8
2023-03-27T08:03:18.889Z,75.8
2023-03-27T08:04:18.997Z,76.0
2023-03-27T08:05:18.817Z,75.8
2023-03-27T08:06:18.746Z,76.1
2023-03-27T08:07:18.932Z,75.9
2023-03-27T08:08:18.768Z,75.7
2023-03-27T08:09:18.931Z,75.8
2023-03-27T08:10:18.798Z,75.9
2023-03-27T08:11:29.613Z,75.9
2023-03-27T08:12:18.838Z,75.9
2023-03-27T08:13:18.859Z,76.0
2023-03-27T08:14:18.748Z,76.1
2023-03-27T08:16:18.854Z,76.1
2023-03-27T08:17:21.388Z,76.2
2023-03-27T08:18:18.982Z,76.1
2023-03-27T08:19:18.736Z,76.1
2023-03-27T08:20:19.186Z,76.2
2023-03-27T08:21:18.822Z,76.2
2023-03-27T08:22:18.912Z,76.2
2023-03-27T08:23:18.755Z,76.2
2023-03-27T08:24:18.770Z,76.2
2023-03-27T08:25:18.752Z,76.2
2023-03-27T08:26:18.779Z,76.3
2023-03-27T08:27:18.901Z,76.3
2023-03-27T08:28:18.735Z,76.2
2023-03-27T08:29:18.756Z,76.3
2023-03-27T08:30:18.847Z,76.5
2023-03-27T08:31:18.988Z,76.4
2023-03-27T08:32:18.764Z,76.4
2023-03-27T08:33:18.861Z,76.4
2023-03-27T08:34:18.743Z,76.3
2023-03-27T08:35:18.939Z,76.4
2023-03-27T08:36:18.735Z,76.2
2023-03-27T08:37:18.671Z,76.3
2023-03-27T08:38:26.052Z,76.4
2023-03-27T08:39:18.734Z,76.3
2023-03-27T08:40:18.860Z,76.3
2023-03-27T08:41:18.676Z,76.6
2023-03-27T08:42:19.423Z,76.4
2023-03-27T08:43:18.815Z,76.3
2023-03-27T08:44:18.717Z,76.3
2023-03-27T08:45:18.684Z,76.3
2023-03-27T08:46:18.731Z,76.7
2023-03-27T08:47:18.768Z,76.5
2023-03-27T08:48:21.214Z,76.5
2023-03-27T08:49:18.714Z,76.4
2023-03-27T08:50:18.691Z,76.5
2023-03-27T08:51:18.740Z,76.4
2023-03-27T08:52:18.739Z,76.5
2023-03-27T08:53:18.882Z,76.6
2023-03-27T08:54:18.721Z,76.4
2023-03-27T08:55:18.787Z,76.2
2023-03-27T08:56:18.704Z,76.2
2023-03-27T08:57:28.992Z,76.1
2023-03-27T08:58:18.768Z,76.3
2023-03-27T08:59:18.785Z,76.2
2023-03-27T09:00:18.776Z,76.2
2023-03-27T09:01:18.757Z,76.1
2023-03-27T09:02:18.732Z,76.0
2023-03-27T09:03:18.895Z,76.0
2023-03-27T09:04:18.990Z,76.0
2023-03-27T09:05:18.772Z,76.0
2023-03-27T09:06:18.751Z,76.0
2023-03-27T09:07:18.779Z,75.9
2023-03-27T09:08:18.703Z,75.9
2023-03-27T09:09:18.967Z,75.9
2023-03-27T09:10:21.513Z,75.8
2023-03-27T09:11:20.599Z,75.9
2023-03-27T09:12:18.731Z,75.9
2023-03-27T09:13:18.691Z,76.0
2023-03-27T09:14:18.670Z,75.9
2023-03-27T09:15:18.934Z,75.8
2023-03-27T09:16:18.721Z,75.8
2023-03-27T09:17:18.627Z,75.7
2023-03-27T09:18:18.622Z,75.6
2023-03-27T09:19:18.639Z,75.6
2023-03-27T09:20:18.968Z,75.7
2023-03-27T09:21:18.670Z,75.7
2023-03-27T09:22:19.030Z,75.7
2023-03-27T09:23:20.956Z,75.7
2023-03-27T09:24:18.649Z,75.7
2023-03-27T09:25:18.701Z,75.9
2023-03-27T09:26:18.612Z,75.8
2023-03-27T09:27:18.701Z,75.8
2023-03-27T09:28:18.586Z,75.9
2023-03-27T09:29:20.139Z,75.8
2023-03-27T09:30:18.742Z,76.0
2023-03-27T09:31:18.676Z,75.8
2023-03-27T09:32:18.688Z,75.8
2023-03-27T09:33:18.681Z,75.6
2023-03-27T09:34:18.655Z,75.6
2023-03-27T09:35:18.645Z,75.5
2023-03-27T09:36:18.738Z,75.6
2023-03-27T09:37:18.843Z,75.7
2023-03-27T09:38:18.614Z,75.7
2023-03-27T09:39:18.687Z,75.7
2023-03-27T09:40:18.691Z,75.6
2023-03-27T09:41:18.667Z,75.6
2023-03-27T09:42:18.636Z,75.8
2023-03-27T09:43:18.709Z,75.7
2023-03-27T09:44:18.621Z,75.7
2023-03-27T09:45:18.637Z,75.7
2023-03-27T09:46:18.594Z,75.6
2023-03-27T09:47:18.634Z,75.7
2023-03-27T09:48:18.957Z,75.7
2023-03-27T09:49:18.631Z,75.7
2023-03-27T09:50:18.651Z,75.8
2023-03-27T09:52:18.635Z,75.8
2023-03-27T09:53:18.566Z,75.8
2023-03-27T09:54:18.735Z,75.7
2023-03-27T09:55:18.756Z,75.7
2023-03-27T09:56:18.597Z,75.5
2023-03-27T09:57:18.687Z,75.5
2023-03-27T09:58:18.608Z,75.6
2023-03-27T09:59:18.733Z,75.6
2023-03-27T10:00:18.712Z,75.5
2023-03-27T10:01:20.225Z,75.4
2023-03-27T10:02:18.584Z,75.5
2023-03-27T10:03:18.646Z,75.6
2023-03-27T10:04:18.653Z,75.5
2023-03-27T10:05:18.575Z,75.5
2023-03-27T10:06:18.536Z,75.7
2023-03-27T10:07:18.627Z,75.6
2023-03-27T10:08:43.326Z,75.7
2023-03-27T10:09:18.618Z,75.6
2023-03-27T10:10:18.591Z,75.6
2023-03-27T10:11:18.545Z,75.6
2023-03-27T10:12:18.599Z,75.6
2023-03-27T10:13:18.594Z,75.6
2023-03-27T10:14:18.736Z,75.7
2023-03-27T10:15:18.595Z,75.6
2023-03-27T10:16:18.745Z,75.7
2023-03-27T10:17:18.574Z,75.7
2023-03-27T10:18:18.569Z,75.7
2023-03-27T10:19:18.523Z,75.7
2023-03-27T10:20:18.591Z,75.6
2023-03-27T10:21:18.803Z,75.6
2023-03-27T10:22:18.559Z,75.5
2023-03-27T10:23:18.562Z,75.4
2023-03-27T10:24:18.511Z,75.4
2023-03-27T10:25:18.563Z,75.3
2023-03-27T10:26:20.642Z,75.4
2023-03-27T10:27:18.515Z,75.4
2023-03-27T10:28:18.610Z,75.5
2023-03-27T10:29:18.505Z,75.5
2023-03-27T10:30:18.565Z,75.5
2023-03-27T10:31:18.532Z,75.5
2023-03-27T10:32:18.819Z,75.3
2023-03-27T10:33:18.633Z,75.3
2023-03-27T10:34:18.522Z,75.3
2023-03-27T10:35:18.512Z,75.1
2023-03-27T10:36:18.511Z,75.1
2023-03-27T10:37:41.261Z,75.0
2023-03-27T10:38:18.499Z,74.9
2023-03-27T10:39:18.568Z,74.8
2023-03-27T10:40:18.508Z,74.5
2023-03-27T10:41:28.559Z,74.5
2023-03-27T10:42:18.711Z,74.4
2023-03-27T10:43:18.659Z,74.4
2023-03-27T10:44:18.491Z,74.5
2023-03-27T10:45:18.547Z,74.5
2023-03-27T10:46:18.540Z,74.7
2023-03-27T10:47:18.521Z,74.5
2023-03-27T10:48:18.510Z,74.6
2023-03-27T10:49:18.498Z,74.4
2023-03-27T10:50:18.591Z,74.4
2023-03-27T10:51:18.530Z,74.0
2023-03-27T10:52:18.450Z,74.0
2023-03-27T10:53:18.599Z,73.9
2023-03-27T10:54:18.741Z,74.2
2023-03-27T10:55:18.502Z,74.3
2023-03-27T10:56:18.453Z,74.4
2023-03-27T10:57:18.958Z,73.7
2023-03-27T10:58:18.483Z,73.2
2023-03-27T10:59:23.402Z,73.9
2023-03-27T11:00:18.804Z,73.4
2023-03-27T11:01:18.586Z,73.3
2023-03-27T11:02:18.538Z,72.1
2023-03-27T11:03:18.575Z,72.8
2023-03-27T11:04:18.619Z,72.5
2023-03-27T11:05:18.902Z,73.1
2023-03-27T11:06:18.561Z,73.3
2023-03-27T11:07:18.583Z,73.3
2023-03-27T11:08:18.621Z,73.3
2023-03-27T11:09:18.757Z,73.3
2023-03-27T11:10:18.425Z,72.3
2023-03-27T11:11:18.458Z,72.4
2023-03-27T11:12:18.468Z,72.1
2023-03-27T11:13:18.535Z,72.4
2023-03-27T11:14:18.461Z,72.6
2023-03-27T11:15:18.480Z,72.2
2023-03-27T11:16:18.623Z,72.7
2023-03-27T11:17:18.456Z,71.4
2023-03-27T11:18:18.489Z,72.5
2023-03-27T11:19:18.407Z,72.2
2023-03-27T11:20:18.420Z,72.5
2023-03-27T11:21:19.511Z,72.5
2023-03-27T11:22:18.451Z,72.4
2023-03-27T11:23:18.415Z,72.1
2023-03-27T11:24:18.542Z,72.6
2023-03-27T11:25:18.442Z,72.8
2023-03-27T11:26:41.467Z,72.9
2023-03-27T11:27:18.483Z,72.7
2023-03-27T11:28:18.471Z,72.8
2023-03-27T11:29:18.444Z,72.9
2023-03-27T11:31:18.424Z,72.6
2023-03-27T11:32:18.581Z,71.9
2023-03-27T11:33:18.502Z,72.3
2023-03-27T11:34:29.104Z,71.4
2023-03-27T11:35:18.496Z,71.7
2023-03-27T11:36:18.412Z,72.3
2023-03-27T11:37:18.513Z,72.0
2023-03-27T11:38:18.537Z,72.4
2023-03-27T11:39:18.498Z,72.5
2023-03-27T11:40:18.513Z,72.4
2023-03-27T11:41:18.661Z,72.2
2023-03-27T11:42:18.598Z,72.2
2023-03-27T11:43:18.586Z,72.0
2023-03-27T11:44:18.470Z,72.1
2023-03-27T11:45:18.393Z,72.0
2023-03-27T11:46:18.443Z,71.9
2023-03-27T11:47:18.800Z,71.4
2023-03-27T11:48:18.700Z,71.3
2023-03-27T11:49:18.626Z,71.9
2023-03-27T11:50:18.338Z,71.9
2023-03-27T11:51:18.362Z,71.6
2023-03-27T11:52:18.456Z,71.6
2023-03-27T11:53:18.460Z,71.9
2023-03-27T11:54:18.529Z,71.9
2023-03-27T11:55:18.319Z,72.0
2023-03-27T11:56:18.430Z,71.4
2023-03-27T11:57:18.566Z,71.0
2023-03-27T11:58:18.413Z,71.2
2023-03-27T11:59:18.373Z,71.2
2023-03-27T12:00:18.396Z,70.8
2023-03-27T12:01:19.151Z,71.0
2023-03-27T12:02:18.563Z,70.6
2023-03-27T12:03:21.445Z,70.5
2023-03-27T12:04:18.509Z,70.9
2023-03-27T12:05:18.623Z,70.8
2023-03-27T12:06:18.692Z,70.4
2023-03-27T12:07:26.301Z,70.4
2023-03-27T12:08:18.374Z,70.5
2023-03-27T12:09:18.527Z,71.0
2023-03-27T12:10:18.367Z,70.3
2023-03-27T12:11:18.341Z,70.3
2023-03-27T12:12:18.372Z,70.1
2023-03-27T12:13:18.345Z,69.8
2023-03-27T12:14:19.162Z,70.0
2023-03-27T12:15:18.391Z,70.2
2023-03-27T12:16:18.410Z,69.8
2023-03-27T12:17:18.330Z,70.5
2023-03-27T12:18:18.349Z,69.4
2023-03-27T12:19:28.329Z,69.8
2023-03-27T12:20:18.582Z,69.8
2023-03-27T12:21:18.318Z,70.3
2023-03-27T12:22:23.844Z,69.2
2023-03-27T12:23:18.328Z,69.6
2023-03-27T12:24:19.258Z,70.2
2023-03-27T12:25:18.352Z,70.4
2023-03-27T12:26:18.404Z,70.5
2023-03-27T12:27:18.351Z,69.5
2023-03-27T12:28:23.168Z,69.9
2023-03-27T12:29:23.347Z,69.1
2023-03-27T12:30:18.348Z,69.0
2023-03-27T12:31:18.707Z,69.3
2023-03-27T12:32:18.367Z,69.0
2023-03-27T12:33:18.612Z,69.7
2023-03-27T12:34:18.433Z,69.7
2023-03-27T12:35:21.487Z,69.4
2023-03-27T12:36:18.385Z,69.7
2023-03-27T12:37:19.168Z,69.4
2023-03-27T12:38:18.683Z,69.1
2023-03-27T12:39:18.340Z,68.5
2023-03-27T12:40:18.586Z,68.9
2023-03-27T12:41:18.523Z,69.1
2023-03-27T12:42:19.221Z,69.5
2023-03-27T12:43:18.870Z,68.9
2023-03-27T12:44:18.299Z,69.2
2023-03-27T12:45:18.503Z,68.1
2023-03-27T12:46:18.386Z,68.4
2023-03-27T12:47:18.309Z,68.7
2023-03-27T12:48:18.317Z,68.7
2023-03-27T12:49:18.315Z,69.4
2023-03-27T12:50:18.312Z,69.0
2023-03-27T12:51:20.476Z,69.4
2023-03-27T12:52:18.453Z,68.9
2023-03-27T12:53:18.371Z,69.0
2023-03-27T12:54:18.492Z,68.9
2023-03-27T12:55:18.613Z,69.2
2023-03-27T12:56:18.315Z,69.4
2023-03-27T12:57:19.990Z,69.1
2023-03-27T12:58:18.563Z,69.3
2023-03-27T12:59:18.329Z,69.2
2023-03-27T13:00:18.344Z,68.8
2023-03-27T13:01:18.331Z,68.0
2023-03-27T13:02:18.399Z,68.3
2023-03-27T13:03:19.189Z,68.4
2023-03-27T13:04:18.274Z,68.5
2023-03-27T13:05:26.958Z,68.0
2023-03-27T13:06:18.439Z,67.4
2023-03-27T13:07:18.597Z,68.2
2023-03-27T13:08:18.799Z,68.4
2023-03-27T13:09:18.602Z,67.5
2023-03-27T13:10:18.290Z,68.2
2023-03-27T13:11:18.373Z,68.3
2023-03-27T13:12:18.989Z,67.8
2023-03-27T13:13:18.396Z,68.3
2023-03-27T13:14:18.478Z,68.6
2023-03-27T13:15:18.734Z,68.5
2023-03-27T13:16:18.434Z,68.2
2023-03-27T13:17:18.302Z,68.1
2023-03-27T13:18:18.473Z,67.6
2023-03-27T13:19:18.403Z,67.8
2023-03-27T13:20:18.331Z,67.2
2023-03-27T13:21:18.491Z,66.7
2023-03-27T13:22:18.312Z,67.3
2023-03-27T13:23:19.031Z,67.1